Amherst, Ohio
Current Conditions -  °F | °C
As of 8:53 AM on Monday 20 Oct 2014 (Local Time) from KLPR Reporting Station
Broken Clouds Broken Clouds  
Wind Chill:   Ceiling: 11000
Heat Index:   Visibility: 10mi
Dew Point:   Wind: 12mph
Humidity: 80%   Direction: 200°SSW
Pressure: 29.94"   Gusts: NA
Location:  41.41°N, 82.24°W
Report Text: KLPR 201253Z AUTO 20010KT 10SM BKN110 08/05 A2994 RMK AO2 SLP143 T00830050 TSNO
Loading
Personal Weather Stations






























Interactive Weather Map
Tropical Storm Tracking
New forecast layout! Learn more

10-Day Weather Forecast

Advertisements
Track Severe Weather on mobile